Time;durP1;ratioP1;P1;durP2;ratioP2;P2;SDS_P1;SDS_P2;PMS_P1;PMS_P2;Temp;Humidity;BMP_temperature;BMP_pressure;BME280_temperature;BME280_humidity;BME280_pressure;Samples;Min_cycle;Max_cycle;Signal;HPM_P1;HPM_P2
2022/09/13 00:01:30;;;;;;;1.88;1.77;;;21.90;55.60;;;;;;5027403;28;20630;-73
2022/09/13 00:03:56;;;;;;;2.15;2.00;;;21.90;55.60;;;;;;5014724;28;20207;-72
2022/09/13 00:06:24;;;;;;;1.85;1.75;;;21.90;55.50;;;;;;5014688;28;20193;-72
2022/09/13 00:08:52;;;;;;;2.33;2.13;;;21.90;55.60;;;;;;5016435;28;20598;-71
2022/09/13 00:11:20;;;;;;;1.90;1.80;;;21.90;55.60;;;;;;5014677;28;20226;-71
2022/09/13 00:13:47;;;;;;;1.92;1.83;;;21.80;55.60;;;;;;5014516;28;20651;-71
2022/09/13 00:16:19;;;;;;;1.88;1.77;;;21.80;55.60;;;;;;5014509;28;20247;-71
2022/09/13 00:18:46;;;;;;;1.88;1.70;;;21.80;55.70;;;;;;5014274;28;20208;-71
2022/09/13 00:21:14;;;;;;;1.77;1.67;;;21.80;55.60;;;;;;5007213;28;20217;-72
2022/09/13 00:23:43;;;;;;;1.83;1.70;;;21.80;55.70;;;;;;5014330;28;20207;-72
2022/09/13 00:26:11;;;;;;;1.92;1.73;;;21.80;55.70;;;;;;4998200;28;20215;-73
2022/09/13 00:28:39;;;;;;;2.45;1.80;;;21.80;55.80;;;;;;5015476;28;20189;-71
2022/09/13 00:31:07;;;;;;;2.00;1.80;;;21.80;55.80;;;;;;5014532;28;20316;-72
2022/09/13 00:33:35;;;;;;;2.20;2.00;;;21.80;55.80;;;;;;5014482;28;20300;-72
2022/09/13 00:36:04;;;;;;;1.75;1.65;;;21.80;55.80;;;;;;5014126;28;20217;-71
2022/09/13 00:38:31;;;;;;;1.90;1.80;;;21.80;56.00;;;;;;5015418;28;20208;-73
2022/09/13 00:40:58;;;;;;;1.90;1.80;;;21.80;55.90;;;;;;5014060;28;20224;-72
2022/09/13 00:43:41;;;;;;;1.90;1.70;;;21.70;55.90;;;;;;5013998;28;20201;-71
2022/09/13 00:46:08;;;;;;;1.88;1.63;;;21.70;55.90;;;;;;5014200;28;20267;-71
2022/09/13 00:48:36;;;;;;;1.80;1.65;;;21.70;55.90;;;;;;5013896;28;20581;-72
2022/09/13 00:51:03;;;;;;;2.00;1.80;;;21.70;55.90;;;;;;5013945;28;20231;-72
2022/09/13 00:53:32;;;;;;;1.95;1.73;;;21.70;55.90;;;;;;5014876;28;20609;-73
2022/09/13 00:56:00;;;;;;;1.85;1.75;;;21.70;56.00;;;;;;4998405;28;20311;-72
2022/09/13 00:58:29;;;;;;;1.75;1.65;;;21.70;55.90;;;;;;5013811;28;20632;-71
2022/09/13 01:00:56;;;;;;;1.70;1.60;;;21.70;56.00;;;;;;5020344;28;20227;-71
2022/09/13 01:03:23;;;;;;;1.80;1.70;;;21.70;56.00;;;;;;4997397;28;20259;-73
2022/09/13 01:05:53;;;;;;;1.77;1.67;;;21.60;55.80;;;;;;4981406;28;20197;-72
2022/09/13 01:08:21;;;;;;;1.90;1.80;;;21.70;55.90;;;;;;4997540;28;20233;-72
2022/09/13 01:10:49;;;;;;;1.70;1.60;;;21.70;55.90;;;;;;4997223;28;20248;-72
2022/09/13 01:13:17;;;;;;;1.77;1.67;;;21.70;55.90;;;;;;4997196;28;20205;-72
2022/09/13 01:15:45;;;;;;;2.35;1.83;;;21.60;55.90;;;;;;4997028;28;20209;-72
2022/09/13 01:18:12;;;;;;;2.00;1.80;;;21.60;55.80;;;;;;5014659;28;20201;-72
2022/09/13 01:20:48;;;;;;;2.00;1.80;;;21.60;55.80;;;;;;4997075;28;20220;-71
2022/09/13 01:23:33;;;;;;;1.77;1.67;;;21.60;55.90;;;;;;4997234;28;20204;-71
2022/09/13 01:26:11;;;;;;;1.90;1.80;;;21.60;55.90;;;;;;4996934;28;20235;-73
2022/09/13 01:29:02;;;;;;;1.88;1.77;;;21.60;56.00;;;;;;4997016;28;20296;-72
2022/09/13 01:31:33;;;;;;;1.70;1.60;;;21.60;56.00;;;;;;4997279;28;20634;-72
2022/09/13 01:34:12;;;;;;;2.10;1.90;;;21.60;56.00;;;;;;4998793;28;20215;-72
2022/09/13 01:36:46;;;;;;;2.00;1.90;;;21.60;56.00;;;;;;5000690;28;20619;-72
2022/09/13 01:39:14;;;;;;;1.70;1.60;;;21.60;56.00;;;;;;4997110;28;20185;-71
2022/09/13 01:41:53;;;;;;;1.80;1.70;;;21.60;55.90;;;;;;4997996;28;20224;-71
2022/09/13 01:44:28;;;;;;;1.70;1.60;;;21.60;55.80;;;;;;4997079;28;20228;-72
2022/09/13 01:47:00;;;;;;;1.63;1.52;;;21.60;55.90;;;;;;5014437;28;20559;-71
2022/09/13 01:49:30;;;;;;;1.63;1.52;;;21.60;55.90;;;;;;5014609;28;20192;-71
2022/09/13 01:51:59;;;;;;;2.05;1.95;;;21.50;55.80;;;;;;4996535;28;20200;-71
2022/09/13 01:54:36;;;;;;;2.10;1.90;;;21.50;55.80;;;;;;4996612;28;20288;-72
2022/09/13 01:57:06;;;;;;;2.10;1.90;;;21.50;55.80;;;;;;4997350;28;20217;-72
2022/09/13 01:59:37;;;;;;;1.70;1.60;;;21.50;55.80;;;;;;5012714;28;20275;-72
2022/09/13 02:02:07;;;;;;;1.80;1.70;;;21.50;55.90;;;;;;4996776;28;20686;-72
2022/09/13 02:04:37;;;;;;;2.05;1.58;;;21.50;55.90;;;;;;5012493;28;20619;-71
2022/09/13 02:07:06;;;;;;;1.80;1.70;;;21.50;55.90;;;;;;5013634;28;20185;-71
2022/09/13 02:09:35;;;;;;;2.17;1.70;;;21.50;56.00;;;;;;4996279;28;20211;-71
2022/09/13 02:12:05;;;;;;;2.00;1.80;;;21.50;56.00;;;;;;4996296;28;20327;-72
2022/09/13 02:14:33;;;;;;;1.70;1.60;;;21.50;56.00;;;;;;5012676;28;20291;-73
2022/09/13 02:17:02;;;;;;;1.95;1.70;;;21.50;56.00;;;;;;4997059;28;20216;-72
2022/09/13 02:19:34;;;;;;;1.80;1.70;;;21.50;56.00;;;;;;4996201;28;20204;-72
2022/09/13 02:22:00;;;;;;;1.75;1.65;;;21.50;56.00;;;;;;4997435;28;20189;-73
2022/09/13 02:24:29;;;;;;;1.95;1.65;;;21.50;56.00;;;;;;4996296;28;20205;-71
2022/09/13 02:26:56;;;;;;;1.83;1.73;;;21.50;56.10;;;;;;4996309;28;20259;-71
2022/09/13 02:29:24;;;;;;;1.60;1.50;;;21.50;56.10;;;;;;4996344;28;20185;-72
2022/09/13 02:31:55;;;;;;;1.73;1.63;;;21.40;56.00;;;;;;5013591;28;20695;-71
2022/09/13 02:34:23;;;;;;;1.60;1.50;;;21.40;56.00;;;;;;5013232;28;20189;-71
2022/09/13 02:36:52;;;;;;;1.80;1.70;;;21.40;56.00;;;;;;4996296;28;20260;-71
2022/09/13 02:39:21;;;;;;;1.70;1.60;;;21.40;56.00;;;;;;5013684;28;20212;-72
2022/09/13 02:41:51;;;;;;;1.80;1.70;;;21.40;56.00;;;;;;5022710;28;20683;-72
2022/09/13 02:44:20;;;;;;;2.03;1.83;;;21.40;56.10;;;;;;5015986;28;20203;-72
2022/09/13 02:46:55;;;;;;;2.05;1.85;;;21.30;56.10;;;;;;5015638;28;20192;-71
2022/09/13 02:49:25;;;;;;;1.80;1.70;;;21.40;56.20;;;;;;5015975;28;20653;-74
2022/09/13 02:51:56;;;;;;;1.65;1.55;;;21.40;56.20;;;;;;5015400;28;20216;-74
2022/09/13 02:54:25;;;;;;;1.83;1.73;;;21.40;56.20;;;;;;5032031;28;20204;-75
2022/09/13 02:56:55;;;;;;;1.80;1.70;;;21.30;56.10;;;;;;5015592;28;20211;-73
2022/09/13 02:59:22;;;;;;;1.80;1.70;;;21.30;56.10;;;;;;5015576;28;20200;-74
2022/09/13 03:01:52;;;;;;;1.83;1.73;;;21.30;56.10;;;;;;5030906;28;20242;-74
2022/09/13 03:04:20;;;;;;;1.83;1.73;;;21.30;56.20;;;;;;5015623;28;20238;-74
2022/09/13 03:06:48;;;;;;;1.98;1.88;;;21.30;56.20;;;;;;5015480;28;20223;-73
2022/09/13 03:09:17;;;;;;;1.73;1.63;;;21.30;56.20;;;;;;5031959;28;20196;-75
2022/09/13 03:11:55;;;;;;;1.80;1.70;;;21.30;56.10;;;;;;5031138;28;20216;-75
2022/09/13 03:14:29;;;;;;;2.08;1.88;;;21.30;56.10;;;;;;5033083;28;20227;-73
2022/09/13 03:17:15;;;;;;;1.98;1.88;;;21.30;56.00;;;;;;5016892;28;20212;-73
2022/09/13 03:20:01;;;;;;;1.98;1.80;;;21.30;56.00;;;;;;5035490;28;20686;-73
2022/09/13 03:22:39;;;;;;;2.10;1.67;;;21.30;56.00;;;;;;5018851;28;20211;-74
2022/09/13 03:25:12;;;;;;;2.05;1.50;;;21.30;56.00;;;;;;5018950;28;20195;-74
2022/09/13 03:27:42;;;;;;;2.00;1.90;;;21.40;55.90;;;;;;5018885;28;20195;-74
2022/09/13 03:30:10;;;;;;;2.08;1.70;;;21.40;55.70;;;;;;5002404;28;20220;-74
2022/09/13 03:32:41;;;;;;;1.60;1.50;;;21.40;55.70;;;;;;5018733;28;20207;-73
2022/09/13 03:35:15;;;;;;;1.73;1.63;;;21.50;55.70;;;;;;5018802;28;20187;-73
2022/09/13 03:37:47;;;;;;;1.52;1.42;;;21.50;55.60;;;;;;5036158;28;20294;-73
2022/09/13 03:40:16;;;;;;;1.73;1.63;;;21.60;55.50;;;;;;5018715;28;20222;-74
2022/09/13 03:42:45;;;;;;;1.75;1.65;;;21.60;55.50;;;;;;5018591;28;20569;-74
2022/09/13 03:45:15;;;;;;;1.98;1.88;;;21.60;55.40;;;;;;5018998;28;20232;-74
2022/09/13 03:47:43;;;;;;;1.85;1.75;;;21.60;55.20;;;;;;5051906;28;20196;-74
2022/09/13 03:50:10;;;;;;;2.00;1.90;;;21.70;55.20;;;;;;5035146;28;20216;-74
2022/09/13 03:52:37;;;;;;;1.85;1.70;;;21.60;55.10;;;;;;5035162;28;20218;-73
2022/09/13 03:55:05;;;;;;;1.52;1.42;;;21.70;55.00;;;;;;5034993;28;20196;-74
2022/09/13 03:57:33;;;;;;;1.90;1.80;;;21.70;55.00;;;;;;5035384;28;20216;-74
2022/09/13 04:00:01;;;;;;;2.00;1.80;;;21.70;54.90;;;;;;5018577;28;20294;-75
2022/09/13 04:02:38;;;;;;;1.70;1.60;;;21.70;54.80;;;;;;5036134;28;20262;-74
2022/09/13 04:05:06;;;;;;;1.60;1.45;;;21.80;54.90;;;;;;5018416;28;20203;-73
2022/09/13 04:07:33;;;;;;;1.60;1.50;;;21.80;54.80;;;;;;5018586;28;20200;-74
2022/09/13 04:10:00;;;;;;;1.60;1.50;;;21.80;54.70;;;;;;5018978;28;20219;-73
2022/09/13 04:12:27;;;;;;;1.60;1.50;;;21.80;54.70;;;;;;5018176;28;20203;-73
2022/09/13 04:14:55;;;;;;;1.63;1.52;;;21.80;54.70;;;;;;5018864;28;20250;-73
2022/09/13 04:17:22;;;;;;;1.48;1.38;;;21.80;54.80;;;;;;5017939;28;20278;-73
2022/09/13 04:19:49;;;;;;;1.60;1.50;;;21.80;54.80;;;;;;5035617;28;20302;-74
2022/09/13 04:22:17;;;;;;;1.75;1.65;;;21.80;54.80;;;;;;5034338;28;20637;-73
2022/09/13 04:24:44;;;;;;;1.50;1.40;;;21.70;54.80;;;;;;5035535;28;20184;-74
2022/09/13 04:27:11;;;;;;;1.70;1.60;;;21.70;54.80;;;;;;5017708;28;20189;-73
2022/09/13 04:29:38;;;;;;;1.73;1.63;;;21.70;54.90;;;;;;5016733;28;20672;-73
2022/09/13 04:32:08;;;;;;;1.70;1.60;;;21.70;54.90;;;;;;5017598;28;20196;-74
2022/09/13 04:34:35;;;;;;;2.85;1.80;;;21.60;54.90;;;;;;5017516;28;20204;-74
2022/09/13 04:37:01;;;;;;;2.22;1.70;;;21.60;55.00;;;;;;5017332;28;20196;-73
2022/09/13 04:39:28;;;;;;;2.85;1.70;;;21.70;55.10;;;;;;5017501;28;20251;-73
2022/09/13 04:41:55;;;;;;;2.08;1.80;;;21.60;55.00;;;;;;5017753;28;20199;-74
2022/09/13 04:44:23;;;;;;;3.25;1.83;;;21.60;54.10;;;;;;5017713;28;20200;-74
2022/09/13 04:46:50;;;;;;;2.35;1.80;;;21.60;54.30;;;;;;5035544;28;20194;-73
2022/09/13 04:49:19;;;;;;;1.98;1.77;;;21.60;54.30;;;;;;5017455;28;20207;-73
2022/09/13 04:51:46;;;;;;;2.75;1.73;;;21.50;54.10;;;;;;5017074;28;20307;-74
2022/09/13 04:54:13;;;;;;;3.30;1.90;;;21.50;54.30;;;;;;5001034;28;20200;-72
2022/09/13 04:56:40;;;;;;;3.05;1.95;;;21.50;54.80;;;;;;5017145;28;20203;-72
2022/09/13 04:59:09;;;;;;;3.45;1.92;;;21.40;54.00;;;;;;5017103;28;20709;-74
2022/09/13 05:01:36;;;;;;;2.53;1.85;;;21.40;53.90;;;;;;5016997;28;20585;-74
2022/09/13 05:04:03;;;;;;;2.55;2.05;;;21.50;53.90;;;;;;5017006;28;20644;-73
2022/09/13 05:06:32;;;;;;;2.75;1.83;;;21.40;53.70;;;;;;5016884;28;20205;-73
2022/09/13 05:08:59;;;;;;;1.90;1.60;;;21.40;53.70;;;;;;5016802;28;20198;-73
2022/09/13 05:11:26;;;;;;;2.20;1.88;;;21.40;53.70;;;;;;5016415;28;20266;-74
2022/09/13 05:13:54;;;;;;;1.88;1.67;;;21.50;53.80;;;;;;5034609;28;20188;-75
2022/09/13 05:16:21;;;;;;;2.00;1.88;;;21.40;53.70;;;;;;5016913;28;20206;-73
2022/09/13 05:18:48;;;;;;;2.72;1.90;;;21.40;53.80;;;;;;5016750;28;20273;-74
2022/09/13 05:21:14;;;;;;;3.13;2.00;;;21.40;53.70;;;;;;5016678;28;20215;-74
2022/09/13 05:23:43;;;;;;;2.22;1.85;;;21.40;53.70;;;;;;5034627;28;20192;-73
2022/09/13 05:26:10;;;;;;;2.05;1.70;;;21.40;53.30;;;;;;5016541;28;20250;-74
2022/09/13 05:28:37;;;;;;;1.70;1.60;;;21.40;53.20;;;;;;5016721;28;20192;-73
2022/09/13 05:31:05;;;;;;;2.05;1.95;;;21.40;53.30;;;;;;5016578;28;20270;-73
2022/09/13 05:33:34;;;;;;;2.55;1.95;;;21.50;53.40;;;;;;5016403;28;20196;-73
2022/09/13 05:36:01;;;;;;;2.08;1.80;;;21.40;53.30;;;;;;5016430;28;20200;-73
2022/09/13 05:38:28;;;;;;;3.28;1.77;;;21.40;53.30;;;;;;5016516;28;20223;-75
2022/09/13 05:40:57;;;;;;;1.83;1.65;;;21.40;53.30;;;;;;5016252;28;20220;-74
2022/09/13 05:43:24;;;;;;;2.42;1.75;;;21.40;53.30;;;;;;5017251;28;20200;-74
2022/09/13 05:45:59;;;;;;;1.80;1.70;;;21.40;53.20;;;;;;5017355;28;20260;-73
2022/09/13 05:48:27;;;;;;;2.00;1.67;;;21.40;53.70;;;;;;5016430;28;20208;-73
2022/09/13 05:50:54;;;;;;;2.22;1.75;;;21.40;53.70;;;;;;5016250;28;20233;-75
2022/09/13 05:53:21;;;;;;;1.80;1.70;;;21.40;53.70;;;;;;5016424;28;20226;-75
2022/09/13 05:55:48;;;;;;;2.63;1.83;;;21.40;53.60;;;;;;5016750;28;20196;-72
2022/09/13 05:58:16;;;;;;;3.05;1.98;;;21.50;53.60;;;;;;5016193;28;20219;-75
2022/09/13 06:00:43;;;;;;;2.38;1.67;;;21.50;53.70;;;;;;5016285;28;20314;-73
2022/09/13 06:03:10;;;;;;;3.55;1.95;;;21.50;53.70;;;;;;5017038;28;20204;-74
2022/09/13 06:05:37;;;;;;;4.25;2.00;;;21.50;53.60;;;;;;5028920;28;20199;-73
2022/09/13 06:08:04;;;;;;;2.63;1.95;;;21.50;53.50;;;;;;5034077;28;20207;-74
2022/09/13 06:10:32;;;;;;;2.22;1.88;;;21.50;53.50;;;;;;5016018;28;20246;-74
2022/09/13 06:12:59;;;;;;;2.28;1.70;;;21.60;53.40;;;;;;5033582;28;20564;-74
2022/09/13 06:15:27;;;;;;;2.80;1.90;;;21.70;53.30;;;;;;5015998;28;20196;-74
2022/09/13 06:17:55;;;;;;;1.90;1.70;;;21.70;53.10;;;;;;5015869;28;20216;-74
2022/09/13 06:20:21;;;;;;;2.25;1.75;;;21.70;53.00;;;;;;5015925;28;20760;-74
2022/09/13 06:22:49;;;;;;;3.22;1.80;;;21.90;52.90;;;;;;5016452;28;20196;-73
2022/09/13 06:25:16;;;;;;;2.85;1.92;;;21.90;52.80;;;;;;5015975;28;20200;-73
2022/09/13 06:27:43;;;;;;;2.58;1.80;;;21.90;52.60;;;;;;5016408;28;20242;-74
2022/09/13 06:30:11;;;;;;;2.05;1.88;;;22.00;52.50;;;;;;5033460;28;20702;-74
2022/09/13 06:32:40;;;;;;;1.60;1.50;;;22.10;52.40;;;;;;5033445;28;20619;-73
2022/09/13 06:35:08;;;;;;;2.30;2.10;;;22.10;52.20;;;;;;5015836;28;20188;-74
2022/09/13 06:37:35;;;;;;;2.80;1.70;;;22.20;52.20;;;;;;5015769;28;20258;-74
2022/09/13 06:40:04;;;;;;;2.10;1.90;;;22.20;52.00;;;;;;5016012;28;20223;-74
2022/09/13 06:42:33;;;;;;;2.10;1.90;;;22.20;52.00;;;;;;5016267;28;20214;-75
2022/09/13 06:45:00;;;;;;;1.90;1.80;;;22.20;51.90;;;;;;5033719;28;20242;-75
2022/09/13 06:47:27;;;;;;;2.50;1.95;;;22.30;52.60;;;;;;4999654;28;20192;-74
2022/09/13 06:49:56;;;;;;;2.20;2.00;;;22.40;51.90;;;;;;5033268;28;20208;-73
2022/09/13 06:52:23;;;;;;;2.13;1.73;;;22.50;51.70;;;;;;5017840;28;20226;-74
2022/09/13 06:54:50;;;;;;;1.80;1.70;;;22.60;51.40;;;;;;5037106;28;20188;-74
2022/09/13 06:57:17;;;;;;;2.88;1.88;;;22.70;51.10;;;;;;5035791;28;20299;-74
2022/09/13 06:59:44;;;;;;;2.13;1.83;;;22.90;50.80;;;;;;5018960;28;20216;-74
2022/09/13 07:02:13;;;;;;;1.90;1.80;;;23.00;50.50;;;;;;5019552;28;20192;-74
2022/09/13 07:04:40;;;;;;;2.55;1.92;;;23.20;50.10;;;;;;5019250;28;20200;-75
2022/09/13 07:07:08;;;;;;;2.03;1.80;;;23.40;49.90;;;;;;5035635;28;20207;-74
2022/09/13 07:09:35;;;;;;;2.33;1.58;;;23.50;49.50;;;;;;5019422;28;20602;-74
2022/09/13 07:12:04;;;;;;;1.80;1.70;;;23.60;49.30;;;;;;5019071;28;20208;-73
2022/09/13 07:14:32;;;;;;;1.90;1.80;;;23.80;49.00;;;;;;5018857;28;20262;-73
2022/09/13 07:16:59;;;;;;;2.20;2.00;;;24.00;49.00;;;;;;5019460;28;20195;-73
2022/09/13 07:19:27;;;;;;;2.22;2.03;;;24.10;48.80;;;;;;5018777;28;20216;-74
2022/09/13 07:21:54;;;;;;;2.35;2.15;;;24.20;48.50;;;;;;5018798;28;20236;-74
2022/09/13 07:24:23;;;;;;;2.80;1.90;;;24.30;48.30;;;;;;5019188;28;20202;-74
2022/09/13 07:26:50;;;;;;;1.83;1.73;;;24.30;48.20;;;;;;5020040;28;20338;-72
2022/09/13 07:29:18;;;;;;;3.47;2.15;;;24.30;48.20;;;;;;5036465;28;20184;-71
2022/09/13 07:31:46;;;;;;;3.22;1.92;;;24.30;48.30;;;;;;5036409;28;20752;-72
2022/09/13 07:34:14;;;;;;;3.92;2.10;;;24.30;48.30;;;;;;5018708;28;20201;-71
2022/09/13 07:36:41;;;;;;;3.45;2.17;;;24.30;48.40;;;;;;5035193;28;20203;-72
2022/09/13 07:39:08;;;;;;;2.70;2.10;;;24.20;48.40;;;;;;5018612;28;20307;-72
2022/09/13 07:41:37;;;;;;;3.08;2.10;;;24.10;48.50;;;;;;5018705;28;20266;-71
2022/09/13 07:44:05;;;;;;;2.92;2.00;;;24.20;48.70;;;;;;5018612;28;20203;-71
2022/09/13 07:46:32;;;;;;;2.65;2.00;;;24.20;48.70;;;;;;5018813;28;20275;-71
2022/09/13 07:49:00;;;;;;;1.70;1.60;;;24.30;48.50;;;;;;5036096;28;20283;-71
2022/09/13 07:51:27;;;;;;;2.95;2.10;;;24.40;48.30;;;;;;5035951;28;20269;-72
2022/09/13 07:53:55;;;;;;;1.98;1.70;;;24.40;48.20;;;;;;5002428;28;20296;-72
2022/09/13 07:56:23;;;;;;;3.13;2.15;;;24.50;48.20;;;;;;5002354;28;20235;-72
2022/09/13 07:58:53;;;;;;;2.13;1.92;;;24.50;48.10;;;;;;5018184;28;20219;-72
2022/09/13 08:01:21;;;;;;;2.05;1.80;;;24.70;47.90;;;;;;5003983;28;20601;-70
2022/09/13 08:03:51;;;;;;;3.30;1.90;;;24.80;47.50;;;;;;4998000;28;20204;-71
2022/09/13 08:06:18;;;;;;;1.80;1.70;;;25.00;47.20;;;;;;5019948;28;20204;-71
2022/09/13 08:08:45;;;;;;;1.73;1.63;;;25.20;46.80;;;;;;4999286;28;20287;-72
2022/09/13 08:11:15;;;;;;;1.88;1.77;;;25.30;46.50;;;;;;5016570;28;20205;-71
2022/09/13 08:13:42;;;;;;;2.25;1.73;;;25.40;46.40;;;;;;4998801;28;20608;-72
2022/09/13 08:16:10;;;;;;;2.88;1.70;;;25.50;46.10;;;;;;4998433;28;20197;-71
2022/09/13 08:18:37;;;;;;;1.92;1.73;;;25.60;45.90;;;;;;5016511;28;20267;-71
2022/09/13 08:21:05;;;;;;;2.80;1.80;;;25.60;45.90;;;;;;4998423;28;20217;-71
2022/09/13 08:23:32;;;;;;;1.77;1.63;;;25.60;45.90;;;;;;5015723;28;20724;-73
2022/09/13 08:26:03;;;;;;;2.00;1.80;;;25.60;45.90;;;;;;4998215;28;20197;-71
2022/09/13 08:28:31;;;;;;;1.80;1.70;;;25.50;46.00;;;;;;4998154;28;20216;-72
2022/09/13 08:31:03;;;;;;;2.80;1.90;;;25.40;46.80;;;;;;4997931;28;20653;-72
2022/09/13 08:33:31;;;;;;;1.60;1.50;;;25.40;46.70;;;;;;4998142;28;20201;-72
2022/09/13 08:35:59;;;;;;;1.90;1.63;;;25.30;46.90;;;;;;4998096;28;20564;-71
2022/09/13 08:38:25;;;;;;;1.90;1.80;;;25.30;46.80;;;;;;4997610;28;20741;-71
2022/09/13 08:40:55;;;;;;;1.90;1.70;;;25.30;46.80;;;;;;4997646;28;20225;-71
2022/09/13 08:43:25;;;;;;;1.75;1.63;;;25.40;46.70;;;;;;4997749;28;20675;-71
2022/09/13 08:45:55;;;;;;;1.70;1.60;;;25.40;46.70;;;;;;5015549;28;20565;-71
2022/09/13 08:48:23;;;;;;;1.80;1.70;;;25.50;46.70;;;;;;4997592;28;20205;-71
2022/09/13 08:50:52;;;;;;;1.73;1.63;;;25.50;46.30;;;;;;4997706;28;20216;-72
2022/09/13 08:53:19;;;;;;;1.63;1.50;;;25.60;46.10;;;;;;4997614;28;20544;-71
2022/09/13 08:55:50;;;;;;;1.90;1.70;;;25.80;46.00;;;;;;4997564;28;20196;-72
2022/09/13 08:58:33;;;;;;;2.28;1.75;;;25.80;45.70;;;;;;4987382;28;20671;-72
2022/09/13 09:01:03;;;;;;;2.00;1.60;;;25.80;45.70;;;;;;5001325;28;20259;-72
2022/09/13 09:03:34;;;;;;;1.40;1.30;;;25.70;45.80;;;;;;5013664;28;20204;-71
2022/09/13 09:06:03;;;;;;;1.45;1.35;;;25.60;45.90;;;;;;5013612;28;20235;-71
2022/09/13 09:08:33;;;;;;;1.67;1.58;;;25.60;46.20;;;;;;5014222;28;20206;-72
2022/09/13 09:11:02;;;;;;;1.65;1.55;;;25.50;46.40;;;;;;5013759;28;20697;-73
2022/09/13 09:13:30;;;;;;;2.35;1.67;;;25.50;46.60;;;;;;5013584;28;20196;-72
2022/09/13 09:15:58;;;;;;;1.88;1.60;;;25.40;46.50;;;;;;5013263;28;20223;-70
2022/09/13 09:18:27;;;;;;;1.70;1.60;;;25.40;46.60;;;;;;5013451;28;20203;-72
2022/09/13 09:20:55;;;;;;;1.75;1.60;;;25.50;46.60;;;;;;5014386;28;20213;-71
2022/09/13 09:23:25;;;;;;;1.70;1.60;;;25.50;46.50;;;;;;5013361;28;20200;-70
2022/09/13 09:26:10;;;;;;;1.95;1.70;;;25.50;46.50;;;;;;5014918;28;20199;-72
2022/09/13 09:28:37;;;;;;;1.60;1.50;;;25.40;46.60;;;;;;5030080;28;20202;-71
2022/09/13 09:31:07;;;;;;;1.40;1.30;;;25.40;46.60;;;;;;5013244;28;20587;-72
2022/09/13 09:33:44;;;;;;;1.70;1.60;;;25.40;46.80;;;;;;5029726;28;20651;-75
2022/09/13 09:36:13;;;;;;;1.73;1.60;;;25.40;46.80;;;;;;5014450;28;20414;-72
2022/09/13 09:38:42;;;;;;;2.30;1.58;;;25.40;46.80;;;;;;5013134;28;20200;-72
2022/09/13 09:41:15;;;;;;;1.52;1.42;;;25.50;46.80;;;;;;5029869;28;20287;-71
2022/09/13 09:43:44;;;;;;;1.70;1.60;;;25.50;46.70;;;;;;5013038;28;20596;-71
2022/09/13 09:46:12;;;;;;;1.40;1.30;;;25.60;46.40;;;;;;5013062;28;20205;-72
2022/09/13 09:48:42;;;;;;;1.70;1.60;;;25.70;46.10;;;;;;5014319;28;20224;-73
2022/09/13 09:51:10;;;;;;;1.70;1.60;;;25.80;45.90;;;;;;5029743;28;20223;-72
2022/09/13 09:53:40;;;;;;;2.78;1.60;;;25.90;45.80;;;;;;5014219;28;20239;-72
2022/09/13 09:56:18;;;;;;;1.80;1.60;;;26.00;45.70;;;;;;5014423;28;20275;-71
2022/09/13 09:58:46;;;;;;;1.55;1.45;;;26.00;45.70;;;;;;4996588;28;20192;-74
2022/09/13 10:01:22;;;;;;;1.60;1.50;;;26.00;45.70;;;;;;5016097;28;20230;-74
2022/09/13 10:03:55;;;;;;;1.63;1.40;;;26.00;45.80;;;;;;5017329;28;20216;-75
2022/09/13 10:06:22;;;;;;;1.98;1.42;;;26.00;45.90;;;;;;5033685;28;20226;-75
2022/09/13 10:08:55;;;;;;;1.67;1.58;;;25.90;45.80;;;;;;5016047;28;20199;-71
2022/09/13 10:11:26;;;;;;;2.05;1.60;;;25.90;45.80;;;;;;5015698;28;20238;-71
2022/09/13 10:13:58;;;;;;;1.45;1.35;;;25.90;45.80;;;;;;5016679;28;20196;-72
2022/09/13 10:16:26;;;;;;;1.70;1.60;;;25.90;46.00;;;;;;5016436;28;20215;-71
2022/09/13 10:18:53;;;;;;;2.00;1.58;;;25.90;46.70;;;;;;5015916;28;20725;-72
2022/09/13 10:21:22;;;;;;;1.50;1.40;;;25.80;46.00;;;;;;5015873;28;20755;-71
2022/09/13 10:23:50;;;;;;;1.50;1.30;;;25.90;46.20;;;;;;5016004;28;20200;-72
2022/09/13 10:26:17;;;;;;;1.70;1.60;;;25.80;46.10;;;;;;5016526;28;20679;-72
2022/09/13 10:28:47;;;;;;;1.50;1.40;;;25.90;46.10;;;;;;5020080;28;20295;-72
2022/09/13 10:31:15;;;;;;;1.48;1.38;;;25.90;46.00;;;;;;5020353;28;20220;-71
2022/09/13 10:33:43;;;;;;;1.50;1.40;;;25.90;46.00;;;;;;5020595;28;20249;-72
2022/09/13 10:36:14;;;;;;;1.63;1.48;;;26.00;45.90;;;;;;5020038;28;20191;-72
2022/09/13 10:38:42;;;;;;;1.73;1.60;;;25.90;45.90;;;;;;5019941;28;20198;-71
2022/09/13 10:41:09;;;;;;;1.80;1.40;;;25.90;45.80;;;;;;5019889;28;20281;-72
2022/09/13 10:43:37;;;;;;;1.40;1.30;;;26.00;45.90;;;;;;5019594;28;20200;-72
2022/09/13 10:46:06;;;;;;;1.50;1.40;;;26.00;45.90;;;;;;5019605;28;20192;-72
2022/09/13 10:48:44;;;;;;;1.58;1.48;;;25.90;46.00;;;;;;5020409;28;20274;-72
2022/09/13 10:51:21;;;;;;;1.48;1.38;;;26.00;46.10;;;;;;5037106;28;20227;-71
2022/09/13 10:53:48;;;;;;;1.60;1.50;;;26.00;46.10;;;;;;5037226;28;20179;-71
2022/09/13 10:56:20;;;;;;;1.50;1.40;;;25.90;46.10;;;;;;5019529;28;20612;-71
2022/09/13 10:58:48;;;;;;;1.60;1.50;;;25.90;46.20;;;;;;5020492;28;20192;-72
2022/09/13 11:01:38;;;;;;;1.52;1.42;;;25.90;46.20;;;;;;5021651;28;20215;-72
2022/09/13 11:04:28;;;;;;;1.63;1.42;;;25.90;46.30;;;;;;4999730;28;20185;-71
2022/09/13 11:06:59;;;;;;;1.42;1.33;;;25.90;46.40;;;;;;4999625;28;20196;-71
2022/09/13 11:09:28;;;;;;;1.50;1.40;;;25.90;46.50;;;;;;4999606;28;20562;-73
2022/09/13 11:11:57;;;;;;;1.40;1.30;;;25.90;46.50;;;;;;4999858;28;20220;-73
2022/09/13 11:14:36;;;;;;;1.50;1.40;;;25.80;46.60;;;;;;4999538;28;20204;-71
2022/09/13 11:17:08;;;;;;;1.48;1.38;;;25.80;46.80;;;;;;4999567;28;20206;-71
2022/09/13 11:19:50;;;;;;;1.58;1.48;;;25.80;46.80;;;;;;5002287;28;20216;-72
2022/09/13 11:22:25;;;;;;;1.55;1.40;;;25.80;46.80;;;;;;5000399;28;20295;-71
2022/09/13 11:25:02;;;;;;;1.60;1.50;;;25.80;46.80;;;;;;4999502;28;20203;-71
2022/09/13 11:27:32;;;;;;;1.88;1.67;;;25.80;46.80;;;;;;4999444;28;20198;-71
2022/09/13 11:30:09;;;;;;;1.52;1.42;;;25.80;46.90;;;;;;4999271;28;20212;-71
2022/09/13 11:32:46;;;;;;;1.67;1.58;;;25.80;46.90;;;;;;5016837;28;20211;-72
2022/09/13 11:35:36;;;;;;;1.58;1.48;;;25.70;46.90;;;;;;4999159;28;20192;-71
2022/09/13 11:38:08;;;;;;;1.23;1.23;;;25.80;47.00;;;;;;4998983;28;20625;-72
2022/09/13 11:40:39;;;;;;;1.25;1.20;;;25.80;47.00;;;;;;4999615;28;20232;-71
2022/09/13 11:43:17;;;;;;;1.50;1.40;;;25.80;46.90;;;;;;4998826;28;20284;-71
2022/09/13 11:45:45;;;;;;;1.73;1.63;;;25.80;47.00;;;;;;5016469;28;20204;-71
2022/09/13 11:48:38;;;;;;;1.50;1.40;;;25.80;46.90;;;;;;4999010;28;20200;-72
2022/09/13 11:51:07;;;;;;;1.25;1.17;;;25.80;46.90;;;;;;4998169;28;20224;-73
2022/09/13 11:53:45;;;;;;;1.50;1.40;;;25.80;46.90;;;;;;4998912;28;20196;-72
2022/09/13 11:56:14;;;;;;;1.45;1.35;;;25.80;47.00;;;;;;4998795;28;20223;-72
2022/09/13 11:58:44;;;;;;;1.38;1.30;;;25.80;46.90;;;;;;4998798;28;20218;-71
2022/09/13 12:01:12;;;;;;;1.58;1.48;;;25.90;47.10;;;;;;5011826;28;20219;-72
2022/09/13 12:03:43;;;;;;;1.45;1.35;;;25.80;47.00;;;;;;5018988;28;20665;-72
2022/09/13 12:06:12;;;;;;;1.50;1.40;;;25.80;47.00;;;;;;5018765;28;20203;-71
2022/09/13 12:08:42;;;;;;;1.50;1.38;;;25.80;47.00;;;;;;5018396;28;20313;-72
2022/09/13 12:11:10;;;;;;;1.33;1.30;;;25.80;47.10;;;;;;5036104;28;20288;-72
2022/09/13 12:13:41;;;;;;;1.30;1.20;;;25.80;47.10;;;;;;5035798;28;20184;-71
2022/09/13 12:16:09;;;;;;;1.30;1.20;;;25.80;47.10;;;;;;5018876;28;20188;-73
2022/09/13 12:18:38;;;;;;;1.50;1.40;;;25.80;47.20;;;;;;5017872;28;20569;-71
2022/09/13 12:21:09;;;;;;;1.40;1.30;;;25.80;47.20;;;;;;5036689;28;20240;-71
2022/09/13 12:23:37;;;;;;;1.25;1.17;;;25.80;47.20;;;;;;5036933;28;20176;-71
2022/09/13 12:26:07;;;;;;;1.30;1.20;;;25.80;47.20;;;;;;5018442;28;20294;-72
2022/09/13 12:28:36;;;;;;;1.17;1.13;;;25.80;47.20;;;;;;5036582;28;20294;-72
2022/09/13 12:31:06;;;;;;;1.40;1.30;;;25.80;47.20;;;;;;5018302;28;20219;-72
2022/09/13 12:33:34;;;;;;;1.30;1.20;;;25.80;47.30;;;;;;5018872;28;20192;-72
2022/09/13 12:36:24;;;;;;;1.10;1.10;;;25.80;47.40;;;;;;5017694;28;20203;-72
2022/09/13 12:39:13;;;;;;;1.42;1.33;;;25.80;47.40;;;;;;5035425;28;20178;-72
2022/09/13 12:41:47;;;;;;;1.55;1.40;;;25.80;47.40;;;;;;5017545;28;20223;-72
2022/09/13 12:44:33;;;;;;;1.30;1.20;;;25.80;47.40;;;;;;5018213;28;20202;-71
2022/09/13 12:47:30;;;;;;;1.40;1.30;;;25.80;47.40;;;;;;5017711;28;20196;-72
2022/09/13 12:50:11;;;;;;;1.33;1.23;;;25.80;47.40;;;;;;5034729;28;20200;-72
2022/09/13 12:52:40;;;;;;;1.40;1.30;;;25.80;47.40;;;;;;5035112;28;20183;-71
2022/09/13 12:55:36;;;;;;;1.02;1.02;;;25.80;47.40;;;;;;5017344;28;20277;-72
2022/09/13 12:58:10;;;;;;;1.30;1.20;;;25.80;47.40;;;;;;5018122;28;20230;-71
2022/09/13 13:00:38;;;;;;;1.88;1.45;;;25.80;47.40;;;;;;5016754;28;20284;-73
2022/09/13 13:03:10;;;;;;;1.25;1.17;;;25.80;47.50;;;;;;5017034;28;20203;-72